createdAt,value
2022-12-29T00:00:17.249Z,1.02
2022-12-29T00:02:43.747Z,1.15
2022-12-29T00:05:10.293Z,0.95
2022-12-29T00:07:36.798Z,0.90
2022-12-29T00:10:03.675Z,1.13
2022-12-29T00:12:50.126Z,1.10
2022-12-29T00:15:35.491Z,1.10
2022-12-29T00:18:02.055Z,1.10
2022-12-29T00:20:47.193Z,1.52
2022-12-29T00:23:32.080Z,1.00
2022-12-29T00:26:17.325Z,1.05
2022-12-29T00:29:03.197Z,1.10
2022-12-29T00:31:48.248Z,0.93
2022-12-29T00:34:33.571Z,1.17
2022-12-29T00:36:59.993Z,1.15
2022-12-29T00:39:45.301Z,1.23
2022-12-29T00:42:30.394Z,0.90
2022-12-29T00:44:56.808Z,1.00
2022-12-29T00:47:23.254Z,1.45
2022-12-29T00:49:49.742Z,1.10
2022-12-29T00:52:17.212Z,1.00
2022-12-29T00:54:45.919Z,0.85
2022-12-29T00:57:13.462Z,1.20
2022-12-29T00:59:41.562Z,0.90
2022-12-29T01:02:08.938Z,1.00
2022-12-29T01:04:35.902Z,1.00
2022-12-29T01:07:02.475Z,0.85
2022-12-29T01:09:47.598Z,0.90
2022-12-29T01:12:14.184Z,1.00
2022-12-29T01:14:41.667Z,0.90
2022-12-29T01:17:08.136Z,0.98
2022-12-29T01:19:34.929Z,0.80
2022-12-29T01:22:01.814Z,0.93
2022-12-29T01:24:28.380Z,0.75
2022-12-29T01:26:55.509Z,0.95
2022-12-29T01:29:22.643Z,0.98
2022-12-29T01:31:50.561Z,1.00
2022-12-29T01:34:17.807Z,0.90
2022-12-29T01:36:44.953Z,0.80
2022-12-29T01:39:13.268Z,0.73
2022-12-29T01:41:42.412Z,1.00
2022-12-29T01:44:48.366Z,0.90
2022-12-29T01:47:31.492Z,0.88
2022-12-29T01:50:02.543Z,1.27
2022-12-29T01:52:32.985Z,0.82
2022-12-29T01:55:02.723Z,0.88
2022-12-29T01:57:34.163Z,0.88
2022-12-29T02:00:09.382Z,1.10
2022-12-29T02:02:50.158Z,0.95
2022-12-29T02:05:29.647Z,1.00
2022-12-29T02:07:56.548Z,0.90
2022-12-29T02:10:26.985Z,1.02
2022-12-29T02:12:54.741Z,1.08
2022-12-29T02:15:45.279Z,1.10
2022-12-29T02:18:17.765Z,1.00
2022-12-29T02:21:15.493Z,1.20
2022-12-29T02:24:25.424Z,1.17
2022-12-29T02:27:29.984Z,0.90
2022-12-29T02:30:04.018Z,1.25
2022-12-29T02:33:05.819Z,1.05
2022-12-29T02:35:57.278Z,1.20
2022-12-29T02:38:54.510Z,1.25
2022-12-29T02:41:30.522Z,1.20
2022-12-29T02:44:09.277Z,1.88
2022-12-29T02:46:42.859Z,1.23
2022-12-29T02:49:41.881Z,1.00
2022-12-29T02:52:16.666Z,1.33
2022-12-29T02:54:43.394Z,1.27
2022-12-29T02:57:15.955Z,1.30
2022-12-29T02:59:46.053Z,1.20
2022-12-29T03:02:25.497Z,1.40
2022-12-29T03:05:28.044Z,1.35
2022-12-29T03:08:18.661Z,1.38
2022-12-29T03:11:02.833Z,1.20
2022-12-29T03:13:59.006Z,1.40
2022-12-29T03:16:56.499Z,1.02
2022-12-29T03:19:25.948Z,1.77
2022-12-29T03:22:21.346Z,1.23
2022-12-29T03:25:02.213Z,1.45
2022-12-29T03:27:32.190Z,1.38
2022-12-29T03:30:03.834Z,1.48
2022-12-29T03:32:39.220Z,1.30
2022-12-29T03:35:11.287Z,1.42
2022-12-29T03:37:45.052Z,0.90
2022-12-29T03:40:12.314Z,1.40
2022-12-29T03:42:40.536Z,1.50
2022-12-29T03:45:09.081Z,1.73
2022-12-29T03:47:37.116Z,1.73
2022-12-29T03:50:04.007Z,1.42
2022-12-29T03:52:34.581Z,1.52
2022-12-29T03:55:01.044Z,1.50
2022-12-29T03:57:27.623Z,1.15
2022-12-29T04:00:00.476Z,1.40
2022-12-29T04:02:30.328Z,1.40
2022-12-29T04:04:57.125Z,1.13
2022-12-29T04:07:23.814Z,1.52
2022-12-29T04:09:52.874Z,1.25
2022-12-29T04:12:23.187Z,1.20
2022-12-29T04:14:49.722Z,1.50
2022-12-29T04:17:16.204Z,1.13
2022-12-29T04:19:45.136Z,1.17
2022-12-29T04:22:12.749Z,1.10
2022-12-29T04:24:39.909Z,1.10
2022-12-29T04:27:06.535Z,0.95
2022-12-29T04:30:02.492Z,1.00
2022-12-29T04:32:40.517Z,1.30
2022-12-29T04:35:07.368Z,1.00
2022-12-29T04:37:34.122Z,1.65
2022-12-29T04:40:00.696Z,1.15
2022-12-29T04:42:27.418Z,1.40
2022-12-29T04:44:54.256Z,1.23
2022-12-29T04:47:35.476Z,1.45
2022-12-29T04:50:34.021Z,2.85
2022-12-29T04:53:22.870Z,3.22
2022-12-29T04:55:51.263Z,1.67
2022-12-29T04:58:22.621Z,1.80
2022-12-29T05:00:50.533Z,1.88
2022-12-29T05:03:17.145Z,4.25
2022-12-29T05:05:45.170Z,1.63
2022-12-29T05:08:12.185Z,1.33
2022-12-29T05:10:38.915Z,1.80
2022-12-29T05:13:10.977Z,1.40
2022-12-29T05:15:37.536Z,1.50
2022-12-29T05:18:04.017Z,1.15
2022-12-29T05:20:30.530Z,0.90
2022-12-29T05:22:57.723Z,1.10
2022-12-29T05:25:24.180Z,0.90
2022-12-29T05:27:57.476Z,0.98
2022-12-29T05:30:40.281Z,0.80
2022-12-29T05:33:07.573Z,0.80
2022-12-29T05:35:34.731Z,1.00
2022-12-29T05:38:01.323Z,0.90
2022-12-29T05:40:27.821Z,1.17
2022-12-29T05:42:57.592Z,1.08
2022-12-29T05:45:49.708Z,1.23
2022-12-29T05:48:45.383Z,1.95
2022-12-29T05:51:26.038Z,1.67
2022-12-29T05:53:53.964Z,1.33
2022-12-29T05:56:20.656Z,1.15
2022-12-29T05:58:53.815Z,1.42
2022-12-29T06:01:21.690Z,0.73
2022-12-29T06:03:48.817Z,1.00
2022-12-29T06:06:16.882Z,1.23
2022-12-29T06:08:43.816Z,0.90
2022-12-29T06:11:10.570Z,1.08
2022-12-29T06:13:37.644Z,0.80
2022-12-29T06:16:04.502Z,1.27
2022-12-29T06:18:31.325Z,0.90
2022-12-29T06:21:06.043Z,0.95
2022-12-29T06:23:32.657Z,1.00
2022-12-29T06:25:59.365Z,0.80
2022-12-29T06:28:25.933Z,1.00
2022-12-29T06:30:53.170Z,0.85
2022-12-29T06:33:19.745Z,0.73
2022-12-29T06:35:47.176Z,0.90
2022-12-29T06:38:14.767Z,1.08
2022-12-29T06:40:43.132Z,1.00
2022-12-29T06:43:27.991Z,0.90
2022-12-29T06:46:12.886Z,0.95
2022-12-29T06:48:39.297Z,0.98
2022-12-29T06:51:05.707Z,0.93
2022-12-29T06:53:32.124Z,1.00
2022-12-29T06:55:58.597Z,0.90
2022-12-29T06:58:25.064Z,0.70
2022-12-29T07:00:51.569Z,0.90
2022-12-29T07:03:18.050Z,0.90
2022-12-29T07:05:44.501Z,1.35
2022-12-29T07:08:10.930Z,0.70
2022-12-29T07:10:37.477Z,0.98
2022-12-29T07:13:03.898Z,0.88
2022-12-29T07:15:30.361Z,1.08
2022-12-29T07:17:56.849Z,0.73
2022-12-29T07:20:26.949Z,0.80
2022-12-29T07:22:54.052Z,0.80
2022-12-29T07:25:20.536Z,0.90
2022-12-29T07:27:46.995Z,0.70
2022-12-29T07:30:13.655Z,0.95
2022-12-29T07:32:40.111Z,0.70
2022-12-29T07:35:07.245Z,1.10
2022-12-29T07:37:35.185Z,1.00
2022-12-29T07:40:04.258Z,0.90
2022-12-29T07:42:32.114Z,0.95
2022-12-29T07:44:59.655Z,1.20
2022-12-29T07:47:30.228Z,1.05
2022-12-29T07:49:56.635Z,1.23
2022-12-29T07:52:23.040Z,1.10
2022-12-29T07:54:49.538Z,1.20
2022-12-29T07:57:15.948Z,1.20
2022-12-29T07:59:42.402Z,1.30
2022-12-29T08:02:12.463Z,1.65
2022-12-29T08:04:38.997Z,1.38
2022-12-29T08:07:05.442Z,1.15
2022-12-29T08:09:31.897Z,0.90
2022-12-29T08:11:58.349Z,1.33
2022-12-29T08:14:24.822Z,0.90
2022-12-29T08:16:51.229Z,1.20
2022-12-29T08:19:17.728Z,1.05
2022-12-29T08:21:44.376Z,1.10
2022-12-29T08:24:11.190Z,1.10
2022-12-29T08:26:37.672Z,1.27
2022-12-29T08:29:04.158Z,1.20
2022-12-29T08:31:30.731Z,1.02
2022-12-29T08:33:57.212Z,1.00
2022-12-29T08:36:23.681Z,2.10
2022-12-29T08:38:50.436Z,1.20
2022-12-29T08:41:16.895Z,0.93
2022-12-29T08:43:47.588Z,1.00
2022-12-29T08:46:14.468Z,1.35
2022-12-29T08:48:41.078Z,1.88
2022-12-29T08:51:08.706Z,1.45
2022-12-29T08:53:35.293Z,1.10
2022-12-29T08:56:05.491Z,1.20
2022-12-29T08:58:41.453Z,1.00
2022-12-29T09:01:08.376Z,1.15
2022-12-29T09:04:13.066Z,0.98
2022-12-29T09:06:21.687Z,1.30
2022-12-29T09:08:48.383Z,0.93
2022-12-29T09:11:23.174Z,0.80
2022-12-29T09:13:50.025Z,1.58
2022-12-29T09:16:17.419Z,1.20
2022-12-29T09:18:44.770Z,1.10
2022-12-29T09:21:12.771Z,1.20
2022-12-29T09:23:40.328Z,1.10
2022-12-29T09:26:07.568Z,1.30
2022-12-29T09:28:34.760Z,0.90
2022-12-29T09:31:01.667Z,1.02
2022-12-29T09:33:28.451Z,1.70
2022-12-29T09:35:57.521Z,1.42
2022-12-29T09:38:25.677Z,1.70
2022-12-29T09:40:58.029Z,1.98
2022-12-29T09:43:53.899Z,1.17
2022-12-29T09:46:29.606Z,1.17
2022-12-29T09:49:27.225Z,1.38
2022-12-29T09:51:56.310Z,0.90
2022-12-29T09:55:00.137Z,1.30
2022-12-29T09:57:38.306Z,1.27
2022-12-29T10:00:13.912Z,1.00
2022-12-29T10:02:45.153Z,1.40
2022-12-29T10:05:47.036Z,1.23
2022-12-29T10:08:34.869Z,0.80
2022-12-29T10:11:27.252Z,1.00
2022-12-29T10:14:04.702Z,1.42
2022-12-29T10:16:46.047Z,0.80
2022-12-29T10:19:33.072Z,1.23
2022-12-29T10:22:29.058Z,1.25
2022-12-29T10:24:57.183Z,0.68
2022-12-29T10:27:24.907Z,0.98
2022-12-29T10:30:00.391Z,1.00
2022-12-29T10:32:35.949Z,0.70
2022-12-29T10:35:41.296Z,0.80
2022-12-29T10:38:28.657Z,1.08
2022-12-29T10:41:13.125Z,1.10
2022-12-29T10:43:50.944Z,0.93
2022-12-29T10:46:22.907Z,1.17
2022-12-29T10:48:49.637Z,1.55
2022-12-29T10:51:23.030Z,0.90
2022-12-29T10:53:58.694Z,1.10
2022-12-29T10:56:37.283Z,1.08
2022-12-29T10:59:31.119Z,1.00
2022-12-29T11:02:12.745Z,1.42
2022-12-29T11:05:03.433Z,1.35
2022-12-29T11:07:31.234Z,0.90
2022-12-29T11:10:37.984Z,1.25
2022-12-29T11:13:13.843Z,1.20
2022-12-29T11:15:43.437Z,1.17
2022-12-29T11:18:23.602Z,1.23
2022-12-29T11:20:56.264Z,1.30
2022-12-29T11:23:27.329Z,1.10
2022-12-29T11:26:13.114Z,1.25
2022-12-29T11:28:42.405Z,1.15
2022-12-29T11:31:10.458Z,1.00
2022-12-29T11:33:39.759Z,1.88
2022-12-29T11:36:14.812Z,1.80
2022-12-29T11:38:46.692Z,1.10
2022-12-29T11:41:20.791Z,1.15
2022-12-29T11:43:48.654Z,2.13
2022-12-29T11:46:23.643Z,1.20
2022-12-29T11:48:51.149Z,2.63
2022-12-29T11:51:26.796Z,1.23
2022-12-29T11:53:59.277Z,1.45
2022-12-29T11:56:42.176Z,1.10
2022-12-29T11:59:39.644Z,2.03
2022-12-29T12:02:19.202Z,3.03
2022-12-29T12:04:46.382Z,4.07
2022-12-29T12:07:18.144Z,1.20
2022-12-29T12:10:07.871Z,1.73
2022-12-29T12:12:48.469Z,1.30
2022-12-29T12:15:52.819Z,1.50
2022-12-29T12:18:40.535Z,1.13
2022-12-29T12:21:15.737Z,1.00
2022-12-29T12:24:08.630Z,0.88
2022-12-29T12:26:50.489Z,0.90
2022-12-29T12:29:44.168Z,0.90
2022-12-29T12:32:22.795Z,1.08
2022-12-29T12:34:50.580Z,1.30
2022-12-29T12:37:48.642Z,1.10
2022-12-29T12:40:30.445Z,1.08
2022-12-29T12:43:13.222Z,1.20
2022-12-29T12:46:00.929Z,1.20
2022-12-29T12:48:53.101Z,1.13
2022-12-29T12:51:39.865Z,1.35
2022-12-29T12:56:48.486Z,1.20
2022-12-29T12:59:30.985Z,0.80
2022-12-29T13:02:35.450Z,1.00
2022-12-29T13:05:27.033Z,1.10
2022-12-29T13:08:12.161Z,0.90
2022-12-29T13:10:53.867Z,1.20
2022-12-29T13:13:44.630Z,1.30
2022-12-29T13:16:42.016Z,1.40
2022-12-29T13:22:09.591Z,1.20
2022-12-29T13:25:01.194Z,1.20
2022-12-29T13:27:54.531Z,1.00
2022-12-29T13:30:24.096Z,1.35
2022-12-29T13:33:04.010Z,1.80
2022-12-29T13:35:57.075Z,1.45
2022-12-29T13:38:46.829Z,1.15
2022-12-29T13:41:42.169Z,1.08
2022-12-29T13:44:15.822Z,1.40
2022-12-29T13:46:46.564Z,1.00
2022-12-29T13:49:18.907Z,1.40
2022-12-29T13:51:51.465Z,1.33
2022-12-29T13:55:05.586Z,2.10
2022-12-29T13:57:47.820Z,1.58
2022-12-29T14:00:19.202Z,1.20
2022-12-29T14:02:45.913Z,1.10
2022-12-29T14:05:21.167Z,1.25
2022-12-29T14:07:49.260Z,2.25
2022-12-29T14:10:30.311Z,1.17
2022-12-29T14:13:16.448Z,1.00
2022-12-29T14:15:51.719Z,0.90
2022-12-29T14:18:22.389Z,0.95
2022-12-29T14:20:55.967Z,1.30
2022-12-29T14:23:49.191Z,1.05
2022-12-29T14:26:34.360Z,1.55
2022-12-29T14:29:17.200Z,1.30
2022-12-29T14:31:44.399Z,1.20
2022-12-29T14:34:10.823Z,1.08
2022-12-29T14:36:58.289Z,1.08
2022-12-29T14:39:32.866Z,1.20
2022-12-29T14:42:05.263Z,1.20
2022-12-29T14:44:32.076Z,1.00
2022-12-29T14:47:05.023Z,1.05
2022-12-29T14:49:34.421Z,0.98
2022-12-29T14:52:22.334Z,1.38
2022-12-29T14:54:51.706Z,0.98
2022-12-29T14:57:23.914Z,1.42
2022-12-29T14:59:55.349Z,1.20
2022-12-29T15:02:26.007Z,1.20
2022-12-29T15:04:59.112Z,1.20
2022-12-29T15:07:28.383Z,1.30
2022-12-29T15:10:09.817Z,1.10
2022-12-29T15:12:43.519Z,1.17
2022-12-29T15:15:24.976Z,0.85
2022-12-29T15:17:51.877Z,1.20
2022-12-29T15:20:30.413Z,1.05
2022-12-29T15:23:01.453Z,1.45
2022-12-29T15:25:27.983Z,1.13
2022-12-29T15:28:02.543Z,1.08
2022-12-29T15:30:29.450Z,0.98
2022-12-29T15:32:55.970Z,1.33
2022-12-29T15:35:26.907Z,1.20
2022-12-29T15:37:53.423Z,1.40
2022-12-29T15:40:26.682Z,1.20
2022-12-29T15:43:11.153Z,1.30
2022-12-29T15:45:38.021Z,1.10
2022-12-29T15:48:06.335Z,1.15
2022-12-29T15:50:36.831Z,1.70
2022-12-29T15:53:10.830Z,1.00
2022-12-29T15:55:40.998Z,1.10
2022-12-29T15:58:23.222Z,0.93
2022-12-29T16:00:58.560Z,1.02
2022-12-29T16:03:37.894Z,1.23
2022-12-29T16:06:24.734Z,0.98
2022-12-29T16:11:28.645Z,1.30
2022-12-29T16:13:56.617Z,0.93
2022-12-29T16:16:29.322Z,1.00
2022-12-29T16:18:57.923Z,1.15
2022-12-29T16:21:34.040Z,0.95
2022-12-29T16:24:07.801Z,1.30
2022-12-29T16:26:34.401Z,1.10
2022-12-29T16:29:02.921Z,1.00
2022-12-29T16:31:48.963Z,1.13
2022-12-29T16:34:37.881Z,1.17
2022-12-29T16:37:04.284Z,1.17
2022-12-29T16:39:38.093Z,1.73
2022-12-29T16:42:33.932Z,1.10
2022-12-29T16:45:57.946Z,1.05
2022-12-29T16:48:30.639Z,1.70
2022-12-29T16:51:03.887Z,0.98
2022-12-29T16:53:38.011Z,0.88
2022-12-29T16:56:18.546Z,1.10
2022-12-29T16:58:50.128Z,0.95
2022-12-29T17:01:19.768Z,0.90
2022-12-29T17:03:51.764Z,1.00
2022-12-29T17:06:20.497Z,1.10
2022-12-29T17:08:47.889Z,1.10
2022-12-29T17:11:44.096Z,1.25
2022-12-29T17:14:22.234Z,1.15
2022-12-29T17:16:49.216Z,1.20
2022-12-29T17:19:21.457Z,1.55
2022-12-29T17:21:47.897Z,1.48
2022-12-29T17:24:18.645Z,1.10
2022-12-29T17:26:48.525Z,1.33
2022-12-29T17:29:26.133Z,1.00
2022-12-29T17:31:54.292Z,1.30
2022-12-29T17:34:21.125Z,1.25
2022-12-29T17:36:47.629Z,1.00
2022-12-29T17:39:14.154Z,1.10
2022-12-29T17:41:40.891Z,1.50
2022-12-29T17:44:07.786Z,1.05
2022-12-29T17:46:34.569Z,0.90
2022-12-29T17:49:01.162Z,1.15
2022-12-29T17:51:27.881Z,1.00
2022-12-29T17:53:54.366Z,0.90
2022-12-29T17:56:20.927Z,0.80
2022-12-29T17:58:48.616Z,0.90
2022-12-29T18:01:15.579Z,1.17
2022-12-29T18:03:42.130Z,0.90
2022-12-29T18:06:12.428Z,1.33
2022-12-29T18:08:40.230Z,0.90
2022-12-29T18:11:21.907Z,0.80
2022-12-29T18:13:48.684Z,0.80
2022-12-29T18:16:15.248Z,0.90
2022-12-29T18:18:41.915Z,1.13
2022-12-29T18:21:16.453Z,0.80
2022-12-29T18:23:42.893Z,0.85
2022-12-29T18:26:27.277Z,0.95
2022-12-29T18:28:55.850Z,0.90
2022-12-29T18:31:25.241Z,0.88
2022-12-29T18:33:53.015Z,0.68
2022-12-29T18:36:21.435Z,0.70
2022-12-29T18:38:48.387Z,0.80
2022-12-29T18:41:23.325Z,0.75
2022-12-29T18:43:50.273Z,0.73
2022-12-29T18:46:22.357Z,0.77
2022-12-29T18:48:49.819Z,0.82
2022-12-29T18:51:18.740Z,1.00
2022-12-29T18:53:47.125Z,0.82
2022-12-29T18:56:14.315Z,0.90
2022-12-29T18:58:41.010Z,0.80
2022-12-29T19:01:16.376Z,1.00
2022-12-29T19:03:42.993Z,0.80
2022-12-29T19:06:09.632Z,0.80
2022-12-29T19:08:36.075Z,1.13
2022-12-29T19:11:02.732Z,1.10
2022-12-29T19:13:29.467Z,1.00
2022-12-29T19:15:57.388Z,0.90
2022-12-29T19:21:12.367Z,0.80
2022-12-29T19:23:38.997Z,0.93
2022-12-29T19:26:05.999Z,0.98
2022-12-29T19:28:32.428Z,1.10
2022-12-29T19:31:01.900Z,0.70
2022-12-29T19:33:28.841Z,0.80
2022-12-29T19:35:59.786Z,1.05
2022-12-29T19:38:26.207Z,0.70
2022-12-29T19:40:52.633Z,1.10
2022-12-29T19:43:19.588Z,0.90
2022-12-29T19:45:46.062Z,0.75
2022-12-29T19:48:15.253Z,0.90
2022-12-29T19:50:42.120Z,0.82
2022-12-29T19:53:08.571Z,0.90
2022-12-29T19:55:35.355Z,0.70
2022-12-29T19:58:01.868Z,0.70
2022-12-29T20:00:28.451Z,0.95
2022-12-29T20:02:55.011Z,1.05
2022-12-29T20:05:21.507Z,0.80
2022-12-29T20:07:47.994Z,0.70
2022-12-29T20:10:14.610Z,0.70
2022-12-29T20:12:41.051Z,0.82
2022-12-29T20:15:09.089Z,0.73
2022-12-29T20:18:10.722Z,0.65
2022-12-29T20:20:22.199Z,0.75
2022-12-29T20:22:48.658Z,0.80
2022-12-29T20:28:02.516Z,0.70
2022-12-29T20:30:28.946Z,0.68
2022-12-29T20:32:55.400Z,0.80
2022-12-29T20:35:21.866Z,0.90
2022-12-29T20:37:48.427Z,1.00
2022-12-29T20:40:14.892Z,0.77
2022-12-29T20:42:41.365Z,0.63
2022-12-29T20:45:08.065Z,0.60
2022-12-29T20:47:34.497Z,0.68
2022-12-29T20:50:01.064Z,0.70
2022-12-29T20:52:27.559Z,0.60
2022-12-29T20:54:54.191Z,0.98
2022-12-29T20:57:20.639Z,0.60
2022-12-29T20:59:47.157Z,0.50
2022-12-29T21:02:24.123Z,0.50
2022-12-29T21:05:22.586Z,0.80
2022-12-29T21:07:37.328Z,0.85
2022-12-29T21:10:04.049Z,0.60
2022-12-29T21:12:30.592Z,0.80
2022-12-29T21:14:57.027Z,0.90
2022-12-29T21:17:23.455Z,0.52
2022-12-29T21:19:50.287Z,0.60
2022-12-29T21:22:16.709Z,0.50
2022-12-29T21:24:43.176Z,0.80
2022-12-29T21:27:09.642Z,0.60
2022-12-29T21:29:36.038Z,0.70
2022-12-29T21:32:06.294Z,0.60
2022-12-29T21:34:34.608Z,0.70
2022-12-29T21:37:01.560Z,0.60
2022-12-29T21:39:28.043Z,0.40
2022-12-29T21:41:59.727Z,0.60
2022-12-29T21:44:45.220Z,0.50
2022-12-29T21:47:11.732Z,0.40
2022-12-29T21:49:38.196Z,0.40
2022-12-29T21:52:04.810Z,0.50
2022-12-29T21:54:49.908Z,0.40
2022-12-29T21:57:37.447Z,0.40
2022-12-29T22:00:25.342Z,0.40
2022-12-29T22:03:16.508Z,0.60
2022-12-29T22:06:05.490Z,0.50
2022-12-29T22:08:50.207Z,0.40
2022-12-29T22:11:34.999Z,0.60
2022-12-29T22:14:01.601Z,0.77
2022-12-29T22:16:28.191Z,0.52
2022-12-29T22:18:55.226Z,0.30
2022-12-29T22:21:21.705Z,0.50
2022-12-29T22:23:48.297Z,0.40
2022-12-29T22:26:15.655Z,0.40
2022-12-29T22:28:43.898Z,0.43
2022-12-29T22:31:39.489Z,0.50
2022-12-29T22:34:06.031Z,0.47
2022-12-29T22:36:32.711Z,0.35
2022-12-29T22:38:59.243Z,0.50
2022-12-29T22:41:25.739Z,0.35
2022-12-29T22:43:52.258Z,0.40
2022-12-29T22:46:18.800Z,0.30
2022-12-29T22:48:45.342Z,0.40
2022-12-29T22:51:11.846Z,0.30
2022-12-29T22:53:39.439Z,0.35
2022-12-29T22:56:12.091Z,0.30
2022-12-29T22:58:43.285Z,0.40
2022-12-29T23:01:11.079Z,0.40
2022-12-29T23:03:38.258Z,0.50
2022-12-29T23:06:07.250Z,0.50
2022-12-29T23:08:38.648Z,0.50
2022-12-29T23:11:07.885Z,0.50
2022-12-29T23:13:34.933Z,0.50
2022-12-29T23:16:01.535Z,0.73
2022-12-29T23:18:28.211Z,0.50
2022-12-29T23:20:54.730Z,0.73
2022-12-29T23:23:48.171Z,0.68
2022-12-29T23:26:16.651Z,0.40
2022-12-29T23:28:43.186Z,0.50
2022-12-29T23:31:10.034Z,0.40
2022-12-29T23:33:36.712Z,0.50
2022-12-29T23:36:03.771Z,0.75
2022-12-29T23:38:30.183Z,0.40
2022-12-29T23:40:56.668Z,0.40
2022-12-29T23:43:23.173Z,0.50
2022-12-29T23:45:51.172Z,0.50
2022-12-29T23:48:18.407Z,0.40
2022-12-29T23:50:45.381Z,0.40
2022-12-29T23:53:12.557Z,0.50
2022-12-29T23:55:42.323Z,0.50
2022-12-29T23:58:10.020Z,0.40
